メインページ
METAR-TAF:

METAR-TAF

空港 :

オデッサ, ウクライナ

オデッサ国際空港

緯度: 46-26N, 経度: 030-46E, 海抜: 42m

現時点の気象観測

当レポートは24分前の14:00(UTC)に作成
の風 4kt
気温 0°C
湿度 93%
気圧 1014 hPa
視程: 7000m

METAR: UKOO 211400Z 09002MPS 7000 NSC 00/M01 Q1014 R16/290050 NOSIG

時間: 16:24 (14:24 UTC)

予報

当レポートは3時間19分前の11:05(UTC)に作成
予報は21日の 12時(UTC)から 22日の 12時(UTC)まで有効
東/南東の風 6kt
視程: 2100m
高度400ftの雲は散在している
高度700ftの千切れ雲あり
高度1500ftの雲は散在している, 積乱雲.
21日の 13時(UTC)から 21日の 18時(UTC)まで一時的に
視程: 0300m
高度200ftの
着氷性の霧
21日の 18時(UTC)から 21日の 20時(UTC)まで徐々に
東/北東の風 16kt、最大31ktの突風を伴う
21日の 20時(UTC)から 22日の 12時(UTC)まで一時的に
北/北東の風 21kt、最大37ktの突風を伴う
視程: 1000m
高度300ftの千切れ雲あり
高度1300ftの千切れ雲あり, 積乱雲.
にわか雪

TAF: UKOO 211105Z 2112/2212 12003MPS 2100 BR SCT004 BKN007 SCT015CB TEMPO 2113/2118 0300 FZFG VV002 BECMG 2118/2120 07008G16MPS TEMPO 2120/2212 02011G19MPS 1000 SHSN BKN003 BKN013CB TXM00/2112Z TNM03/2204Z

4,000以上の空港の気象観測と天気予報(METAR報とTAF報)

利用可能な観測所は地図上に黄色い丸と赤い丸で示す。

丸の上にカーソルを重ねると観測所名を参照できる。

次にクリックすると気象観測と天気予報を参照できる。

マップの切り替え:黒色「×」印の緑ボタンをクリックして拡大、「-」印の緑ボタンをクリックして縮小、緑色の三角印をクリックして隣りの地図に切り替え


METAR-TAF: